Time;durP1;ratioP1;P1;durP2;ratioP2;P2;SDS_P1;SDS_P2;PMS_P1;PMS_P2;Temp;Humidity;BMP_temperature;BMP_pressure;BME280_temperature;BME280_humidity;BME280_pressure;Samples;Min_cycle;Max_cycle;Signal;HPM_P1;HPM_P2
2022/04/21 00:01:24;;;;;;;8.60;5.93;;;11.70;99.90;;;;;;5113495;28;20754;-72
2022/04/21 00:03:49;;;;;;;8.07;5.87;;;11.60;1.00;;;;;;5114078;28;20577;-72
2022/04/21 00:06:16;;;;;;;9.67;6.80;;;11.60;99.90;;;;;;5113759;28;20178;-71
2022/04/21 00:08:42;;;;;;;9.90;6.23;;;11.50;1.00;;;;;;5114032;28;20159;-72
2022/04/21 00:11:08;;;;;;;11.57;6.60;;;11.40;29.50;;;;;;5113784;28;20530;-72
2022/04/21 00:13:34;;;;;;;12.50;7.30;;;11.40;52.30;;;;;;5095618;28;20178;-72
2022/04/21 00:16:00;;;;;;;8.57;6.27;;;11.40;99.90;;;;;;5095089;28;20186;-71
2022/04/21 00:18:26;;;;;;;9.00;5.53;;;11.40;99.90;;;;;;5113910;28;20301;-72
2022/04/21 00:20:52;;;;;;;9.07;5.90;;;11.40;99.90;;;;;;5113743;28;20285;-72
2022/04/21 00:23:26;;;;;;;8.50;6.27;;;11.40;99.90;;;;;;5113663;28;20529;-72
2022/04/21 00:25:58;;;;;;;8.80;6.90;;;11.30;99.90;;;;;;5113620;28;20676;-72
2022/04/21 00:28:24;;;;;;;11.70;6.73;;;11.30;99.90;;;;;;5113274;28;20236;-71
2022/04/21 00:30:50;;;;;;;9.93;6.47;;;11.30;99.90;;;;;;5113691;28;20729;-71
2022/04/21 00:33:17;;;;;;;8.33;6.07;;;11.30;1.00;;;;;;5095444;28;20210;-72
2022/04/21 00:35:42;;;;;;;11.97;6.20;;;11.30;1.00;;;;;;5113628;28;20199;-71
2022/04/21 00:38:08;;;;;;;9.23;7.30;;;11.30;99.90;;;;;;5095320;28;20343;-71
2022/04/21 00:40:34;;;;;;;8.50;7.43;;;11.20;1.00;;;;;;5095067;28;20207;-71
2022/04/21 00:43:01;;;;;;;11.87;6.97;;;11.10;1.00;;;;;;5113119;28;20250;-72
2022/04/21 00:45:28;;;;;;;9.87;6.50;;;11.10;13.70;;;;;;5113519;28;20199;-72
2022/04/21 00:47:56;;;;;;;9.67;6.33;;;11.10;17.80;;;;;;5113491;28;20174;-71
2022/04/21 00:50:33;;;;;;;8.00;6.63;;;11.00;31.20;;;;;;5113369;28;20175;-72
2022/04/21 00:53:00;;;;;;;10.43;7.00;;;11.00;99.90;;;;;;5113454;28;20167;-71
2022/04/21 00:55:26;;;;;;;10.43;7.53;;;10.90;99.90;;;;;;5113161;28;20171;-72
2022/04/21 00:57:54;;;;;;;9.20;6.33;;;11.00;99.90;;;;;;5112825;28;20231;-72
2022/04/21 01:00:19;;;;;;;12.70;7.27;;;11.00;99.90;;;;;;5113357;28;20658;-72
2022/04/21 01:02:51;;;;;;;9.90;6.20;;;11.00;99.90;;;;;;5113554;28;20178;-73
2022/04/21 01:05:18;;;;;;;13.10;6.83;;;10.90;99.90;;;;;;5095213;28;20175;-72
2022/04/21 01:07:44;;;;;;;12.03;6.70;;;10.90;99.90;;;;;;5113337;28;20167;-73
2022/04/21 01:10:10;;;;;;;7.03;6.27;;;10.90;99.90;;;;;;5094778;28;20181;-72
2022/04/21 01:12:37;;;;;;;11.10;6.83;;;10.80;99.90;;;;;;5094559;28;20172;-72
2022/04/21 01:15:03;;;;;;;10.47;6.77;;;10.80;99.90;;;;;;5094805;28;20178;-73
2022/04/21 01:17:35;;;;;;;9.10;6.40;;;10.90;99.90;;;;;;5097356;28;20262;-72
2022/04/21 01:20:02;;;;;;;9.93;6.60;;;10.90;99.90;;;;;;5117317;28;20638;-72
2022/04/21 01:22:28;;;;;;;8.07;6.67;;;10.90;99.90;;;;;;5117286;28;20167;-71
2022/04/21 01:24:54;;;;;;;8.47;7.00;;;10.90;99.90;;;;;;5116958;28;20715;-72
2022/04/21 01:27:22;;;;;;;7.27;6.50;;;10.90;99.90;;;;;;5116908;28;20270;-72
2022/04/21 01:29:48;;;;;;;11.70;6.77;;;10.80;99.90;;;;;;5117138;28;20250;-73
2022/04/21 01:32:14;;;;;;;9.67;7.03;;;10.80;99.90;;;;;;5098718;28;20191;-71
2022/04/21 01:34:40;;;;;;;9.33;6.87;;;10.80;99.90;;;;;;5116968;28;20171;-72
2022/04/21 01:42:34;;;;;;;8.23;6.97;;;10.70;99.90;;;;;;5116530;28;20182;-72
2022/04/21 01:45:00;;;;;;;10.73;7.13;;;10.60;99.90;;;;;;5116774;28;20267;-72
2022/04/21 01:47:25;;;;;;;10.63;6.77;;;10.60;99.90;;;;;;5116711;28;20585;-71
2022/04/21 01:49:51;;;;;;;12.37;6.90;;;10.50;1.00;;;;;;5116535;28;20178;-72
2022/04/21 01:52:16;;;;;;;12.03;7.23;;;10.50;1.00;;;;;;5116552;28;20216;-72
2022/04/21 01:54:44;;;;;;;8.27;7.03;;;10.50;1.00;;;;;;5116246;28;20620;-72
2022/04/21 01:57:10;;;;;;;11.73;7.30;;;10.50;1.00;;;;;;5116037;28;20310;-72
2022/04/21 01:59:35;;;;;;;7.70;6.63;;;10.40;1.00;;;;;;5116406;28;20250;-72
2022/04/21 02:02:01;;;;;;;9.03;7.43;;;10.40;1.00;;;;;;5098364;28;20183;-72
2022/04/21 02:04:26;;;;;;;8.90;7.00;;;10.40;1.00;;;;;;5116256;28;20678;-72
2022/04/21 02:06:52;;;;;;;8.57;7.00;;;10.30;1.00;;;;;;5116462;28;20231;-72
2022/04/21 02:09:18;;;;;;;8.33;6.93;;;10.30;1.00;;;;;;5116167;28;20167;-72
2022/04/21 02:11:44;;;;;;;8.07;6.67;;;10.20;1.00;;;;;;5115958;28;20168;-72
2022/04/21 02:14:09;;;;;;;9.13;7.20;;;10.20;1.00;;;;;;5116555;28;20732;-71
2022/04/21 02:16:35;;;;;;;10.67;6.83;;;10.20;1.00;;;;;;5116358;28;20167;-72
2022/04/21 02:19:01;;;;;;;8.30;6.73;;;10.20;1.00;;;;;;5116019;28;20183;-71
2022/04/21 02:21:26;;;;;;;15.27;7.53;;;10.20;1.00;;;;;;5115940;28;20214;-72
2022/04/21 02:23:52;;;;;;;12.80;7.90;;;10.20;1.00;;;;;;5115802;28;20630;-72
2022/04/21 02:26:18;;;;;;;11.77;7.10;;;10.10;1.00;;;;;;5097012;28;20171;-72
2022/04/21 02:28:43;;;;;;;9.13;7.50;;;10.10;1.00;;;;;;5115719;28;20763;-71
2022/04/21 02:31:09;;;;;;;9.00;7.17;;;10.10;1.00;;;;;;5097537;28;20228;-71
2022/04/21 02:33:34;;;;;;;10.47;7.40;;;10.10;1.00;;;;;;5115767;28;20183;-71
2022/04/21 02:36:00;;;;;;;8.40;7.10;;;10.10;1.00;;;;;;5115552;28;20484;-71
2022/04/21 02:38:26;;;;;;;9.30;8.40;;;10.00;1.00;;;;;;5115599;28;20191;-71
2022/04/21 02:40:51;;;;;;;11.10;8.13;;;10.00;1.00;;;;;;5114886;28;20214;-71
2022/04/21 02:43:17;;;;;;;8.90;8.00;;;10.00;1.00;;;;;;5115535;28;20630;-72
2022/04/21 02:45:43;;;;;;;13.33;7.93;;;10.00;1.00;;;;;;5080684;28;20174;-72
2022/04/21 02:48:09;;;;;;;10.70;8.27;;;9.90;1.00;;;;;;5115559;28;20171;-72
2022/04/21 02:50:35;;;;;;;15.97;7.67;;;9.90;1.00;;;;;;5115462;28;20213;-72
2022/04/21 02:53:01;;;;;;;8.03;7.20;;;9.90;1.00;;;;;;5115463;28;20175;-72
2022/04/21 02:58:12;;;;;;;9.13;7.30;;;9.80;1.00;;;;;;5115709;28;20206;-72
2022/04/21 03:00:38;;;;;;;11.63;7.80;;;9.70;1.00;;;;;;5115154;28;20654;-72
2022/04/21 03:03:04;;;;;;;9.87;7.30;;;9.70;1.00;;;;;;5097286;28;20200;-72
2022/04/21 03:05:29;;;;;;;8.80;7.47;;;9.70;1.00;;;;;;5115200;28;20171;-71
2022/04/21 03:07:55;;;;;;;9.17;7.60;;;9.80;1.00;;;;;;5114665;28;20622;-71
2022/04/21 03:10:21;;;;;;;13.40;7.47;;;9.70;1.00;;;;;;5115048;28;20179;-72
2022/04/21 03:12:46;;;;;;;11.20;7.67;;;9.60;1.00;;;;;;5115287;28;20255;-72
2022/04/21 03:15:12;;;;;;;9.57;7.37;;;9.50;1.00;;;;;;5114849;28;20536;-72
2022/04/21 03:17:39;;;;;;;12.93;8.13;;;9.40;1.00;;;;;;5115199;28;20225;-72
2022/04/21 03:20:05;;;;;;;10.53;7.93;;;9.50;1.00;;;;;;5114494;28;20191;-72
2022/04/21 03:25:18;;;;;;;10.67;8.07;;;9.40;1.00;;;;;;5114929;28;20213;-72
2022/04/21 03:27:50;;;;;;;13.33;7.93;;;9.40;1.00;;;;;;5114843;28;20195;-72
2022/04/21 03:30:16;;;;;;;10.53;8.07;;;9.40;1.00;;;;;;5096103;28;20327;-72
2022/04/21 03:32:42;;;;;;;12.53;8.30;;;9.40;1.00;;;;;;5096488;28;20224;-72
2022/04/21 03:35:07;;;;;;;11.07;7.10;;;9.30;1.00;;;;;;5114082;28;20181;-71
2022/04/21 03:37:33;;;;;;;11.77;7.90;;;9.20;1.00;;;;;;5096074;28;20240;-71
2022/04/21 03:39:59;;;;;;;11.93;8.17;;;9.20;1.00;;;;;;5114085;28;20238;-72
2022/04/21 03:42:27;;;;;;;13.67;8.20;;;9.20;1.00;;;;;;5114020;28;20218;-72
2022/04/21 03:44:53;;;;;;;11.40;8.43;;;9.20;1.00;;;;;;5114635;28;20170;-72
2022/04/21 03:47:20;;;;;;;10.60;7.90;;;9.30;1.00;;;;;;5114027;28;20183;-72
2022/04/21 03:49:46;;;;;;;14.00;9.00;;;9.30;1.00;;;;;;5113709;28;20183;-72
2022/04/21 03:52:12;;;;;;;11.77;8.27;;;9.40;1.00;;;;;;5095074;28;20545;-72
2022/04/21 03:54:39;;;;;;;12.13;8.27;;;9.40;1.00;;;;;;5113559;28;20239;-73
2022/04/21 03:57:05;;;;;;;13.33;8.77;;;9.40;1.00;;;;;;5113436;28;20306;-72
2022/04/21 03:59:32;;;;;;;13.50;8.30;;;9.40;1.00;;;;;;5114288;28;20175;-72
2022/04/21 04:02:02;;;;;;;11.57;8.20;;;9.30;1.00;;;;;;5114010;28;20207;-72
2022/04/21 04:04:32;;;;;;;11.50;8.43;;;9.30;1.00;;;;;;5113732;28;20163;-72
2022/04/21 04:12:35;;;;;;;16.00;9.03;;;9.20;1.00;;;;;;5114133;28;20171;-72
2022/04/21 04:15:03;;;;;;;24.83;9.83;;;9.20;1.00;;;;;;5113591;28;20179;-72
2022/04/21 04:17:29;;;;;;;18.20;9.20;;;9.10;1.00;;;;;;5095446;28;20227;-72
2022/04/21 04:19:55;;;;;;;13.70;9.53;;;9.10;1.00;;;;;;5113327;28;20167;-71
2022/04/21 04:22:21;;;;;;;12.60;8.80;;;9.10;1.00;;;;;;5113237;28;20190;-72
2022/04/21 04:24:46;;;;;;;16.27;8.67;;;9.00;1.00;;;;;;5113602;28;20642;-72
2022/04/21 04:27:12;;;;;;;19.53;9.27;;;8.90;1.00;;;;;;5113467;28;20197;-72
2022/04/21 04:29:38;;;;;;;13.70;9.30;;;8.90;1.00;;;;;;5095217;28;20171;-72
2022/04/21 04:32:04;;;;;;;16.70;9.90;;;8.90;1.00;;;;;;5113135;28;20174;-72
2022/04/21 04:34:30;;;;;;;17.67;8.83;;;8.90;1.00;;;;;;5113176;28;20171;-72
2022/04/21 04:36:56;;;;;;;20.73;9.33;;;8.90;1.00;;;;;;5113005;28;20517;-72
2022/04/21 04:39:21;;;;;;;11.93;9.20;;;8.90;1.00;;;;;;5113342;28;20183;-72
2022/04/21 04:44:31;;;;;;;18.27;9.60;;;8.90;1.00;;;;;;5113382;28;20223;-72
2022/04/21 04:46:56;;;;;;;20.90;9.00;;;9.00;1.00;;;;;;5113030;28;20175;-72
2022/04/21 04:49:23;;;;;;;12.87;8.70;;;9.10;1.00;;;;;;5094149;28;20179;-72
2022/04/21 04:51:48;;;;;;;19.17;9.33;;;9.20;1.00;;;;;;5113621;28;20545;-72
2022/04/21 04:54:15;;;;;;;15.73;9.27;;;9.30;1.00;;;;;;5117313;28;20231;-72
2022/04/21 04:56:42;;;;;;;13.73;8.60;;;9.40;1.00;;;;;;5117082;28;20685;-72
2022/04/21 04:59:08;;;;;;;17.70;9.20;;;9.50;1.00;;;;;;5098365;28;20269;-71
2022/04/21 05:01:42;;;;;;;13.70;8.27;;;9.60;1.00;;;;;;5116538;28;20684;-72
2022/04/21 05:04:18;;;;;;;13.50;9.03;;;9.90;1.00;;;;;;5116726;28;20177;-72
2022/04/21 05:06:49;;;;;;;14.23;8.53;;;10.10;1.00;;;;;;5116846;28;20253;-73
2022/04/21 05:09:17;;;;;;;9.27;8.03;;;10.60;1.00;;;;;;5116374;28;20172;-72
2022/04/21 05:11:46;;;;;;;8.77;7.70;;;10.70;1.00;;;;;;5116401;28;20171;-72
2022/04/21 05:14:13;;;;;;;8.60;7.80;;;11.00;99.90;;;;;;5098394;28;20182;-72
2022/04/21 05:16:42;;;;;;;11.00;8.00;;;11.50;63.30;;;;;;5098076;28;20171;-72
2022/04/21 05:19:08;;;;;;;18.93;8.47;;;12.10;1.00;;;;;;5116180;28;20612;-72
2022/04/21 05:21:35;;;;;;;16.50;7.83;;;13.00;99.90;;;;;;5116371;28;20211;-71
2022/04/21 05:24:01;;;;;;;9.93;7.03;;;13.40;1.00;;;;;;5116109;28;20195;-73
2022/04/21 05:26:28;;;;;;;10.37;7.30;;;13.40;99.90;;;;;;5115686;28;20186;-72
2022/04/21 05:28:55;;;;;;;9.03;7.30;;;14.00;99.90;;;;;;5116082;28;20174;-72
2022/04/21 05:31:22;;;;;;;9.23;7.20;;;14.00;1.00;;;;;;5115952;28;20174;-72
2022/04/21 05:33:48;;;;;;;7.77;6.73;;;14.20;1.00;;;;;;5114762;28;20254;-73
2022/04/21 05:36:14;;;;;;;12.93;6.93;;;14.50;99.90;;;;;;5115756;28;20172;-72
2022/04/21 05:38:40;;;;;;;15.23;7.23;;;15.30;1.00;;;;;;5115873;28;20216;-72
2022/04/21 05:41:06;;;;;;;6.67;6.07;;;15.30;1.00;;;;;;5115333;28;20194;-73
2022/04/21 05:43:42;;;;;;;9.67;6.50;;;15.60;1.00;;;;;;5115936;28;20171;-74
2022/04/21 05:46:09;;;;;;;9.80;6.80;;;15.70;1.00;;;;;;5114795;28;20167;-73
2022/04/21 05:48:36;;;;;;;7.40;6.43;;;15.40;1.00;;;;;;5114050;28;20175;-73
2022/04/21 05:51:03;;;;;;;6.97;6.20;;;15.90;1.00;;;;;;5114863;28;20295;-73
2022/04/21 05:53:36;;;;;;;9.10;6.47;;;14.80;1.00;;;;;;5115051;28;20195;-75
2022/04/21 05:56:06;;;;;;;7.80;6.77;;;15.20;1.00;;;;;;5114991;28;20179;-75
2022/04/21 05:58:32;;;;;;;8.43;7.00;;;15.30;1.00;;;;;;5087721;28;20187;-75
2022/04/21 06:01:00;;;;;;;10.70;6.87;;;14.90;1.00;;;;;;5111336;28;20206;-73
2022/04/21 06:03:26;;;;;;;14.43;8.07;;;13.90;99.90;;;;;;5111724;28;20171;-74
2022/04/21 06:05:52;;;;;;;13.37;7.00;;;13.40;1.00;;;;;;5105081;28;20187;-74
2022/04/21 06:08:18;;;;;;;10.43;7.00;;;14.00;1.00;;;;;;5094607;28;20172;-74
2022/04/21 06:10:43;;;;;;;8.37;6.37;;;15.20;1.00;;;;;;5113010;28;20175;-76
2022/04/21 06:13:09;;;;;;;10.20;6.77;;;16.10;1.00;;;;;;5112877;28;20205;-76
2022/04/21 06:15:35;;;;;;;9.07;6.20;;;16.10;1.00;;;;;;5110677;28;20518;-78
2022/04/21 06:18:01;;;;;;;9.77;6.40;;;16.20;1.00;;;;;;5113801;28;20171;-77
2022/04/21 06:20:27;;;;;;;10.53;6.47;;;16.80;1.00;;;;;;5094851;28;20258;-76
2022/04/21 06:22:55;;;;;;;7.37;6.67;;;17.20;99.90;;;;;;5114455;28;20186;-77
2022/04/21 06:25:21;;;;;;;7.67;6.47;;;17.20;99.90;;;;;;5112026;28;20207;-77
2022/04/21 06:27:47;;;;;;;8.77;6.63;;;17.10;99.90;;;;;;5114106;28;20189;-78
2022/04/21 06:30:13;;;;;;;10.10;6.33;;;17.60;99.90;;;;;;5113863;28;20227;-78
2022/04/21 06:32:38;;;;;;;6.93;6.27;;;17.10;99.90;;;;;;5112970;28;20179;-78
2022/04/21 06:35:05;;;;;;;7.70;6.40;;;17.00;99.90;;;;;;5112136;28;20258;-78
2022/04/21 06:37:30;;;;;;;8.30;5.80;;;17.10;99.90;;;;;;5113845;28;20189;-78
2022/04/21 06:39:56;;;;;;;13.67;6.17;;;18.50;99.90;;;;;;5110238;28;20171;-77
2022/04/21 06:42:22;;;;;;;7.18;6.45;;;19.00;99.90;;;;;;5101157;28;20190;-77
2022/04/21 06:50:15;;;;;;;11.40;5.80;;;17.60;99.90;;;;;;5098041;28;20220;-77
2022/04/21 06:52:41;;;;;;;8.32;5.53;;;18.80;99.90;;;;;;5095378;28;20589;-78
2022/04/21 06:55:08;;;;;;;7.18;5.78;;;18.40;99.90;;;;;;5113162;28;20179;-78
2022/04/21 06:57:33;;;;;;;8.93;6.50;;;19.00;99.90;;;;;;5110374;28;20697;-78
2022/04/21 06:59:59;;;;;;;6.85;5.60;;;20.10;99.90;;;;;;5112971;28;20214;-77
2022/04/21 07:02:31;;;;;;;6.15;5.55;;;19.80;99.90;;;;;;5096210;28;20274;-78
2022/04/21 07:05:08;;;;;;;8.57;5.40;;;19.50;99.90;;;;;;5113300;28;20178;-78
2022/04/21 07:07:33;;;;;;;8.70;5.35;;;19.70;99.90;;;;;;5111362;28;20171;-77
2022/04/21 07:10:02;;;;;;;7.53;5.20;;;19.30;99.90;;;;;;5113459;28;20272;-77
2022/04/21 07:12:29;;;;;;;8.32;5.70;;;20.10;99.90;;;;;;5093942;28;20203;-77
2022/04/21 07:14:59;;;;;;;5.65;5.13;;;20.30;99.90;;;;;;5093579;28;20653;-77
2022/04/21 07:17:25;;;;;;;5.53;5.13;;;19.90;99.90;;;;;;5113668;28;20167;-76
2022/04/21 07:19:50;;;;;;;11.13;5.47;;;19.10;99.90;;;;;;5113402;28;20178;-77
2022/04/21 07:22:19;;;;;;;7.90;5.10;;;20.00;99.90;;;;;;5114005;28;20175;-76
2022/04/21 07:24:44;;;;;;;9.27;4.70;;;20.70;99.90;;;;;;5114168;28;20459;-77
2022/04/21 07:27:10;;;;;;;9.27;5.70;;;19.20;99.90;;;;;;5112527;28;20472;-77
2022/04/21 07:29:35;;;;;;;10.95;6.40;;;20.40;99.90;;;;;;5112974;28;20167;-76
2022/04/21 07:32:01;;;;;;;6.43;5.07;;;21.30;99.90;;;;;;5111679;28;20202;-75
2022/04/21 07:34:27;;;;;;;5.90;5.03;;;22.20;99.90;;;;;;5108250;28;20641;-77
2022/04/21 07:36:52;;;;;;;7.28;5.70;;;20.20;99.90;;;;;;5109925;28;20254;-76
2022/04/21 07:39:18;;;;;;;6.30;5.22;;;20.40;99.90;;;;;;5111978;28;20190;-75
2022/04/21 07:41:44;;;;;;;6.50;5.07;;;21.50;99.90;;;;;;5112258;28;20737;-76
2022/04/21 07:44:09;;;;;;;8.32;5.43;;;21.70;99.90;;;;;;5113067;28;20557;-76
2022/04/21 07:46:36;;;;;;;7.45;5.40;;;21.70;99.90;;;;;;5111949;28;20179;-75
2022/04/21 07:51:46;;;;;;;9.00;5.30;;;22.50;99.90;;;;;;5110711;28;20196;-75
2022/04/21 07:54:12;;;;;;;12.57;5.07;;;22.90;99.90;;;;;;5090508;28;20167;-75
2022/04/21 07:56:38;;;;;;;7.25;5.10;;;23.00;99.90;;;;;;5111172;28;20218;-74
2022/04/21 07:59:03;;;;;;;7.55;5.07;;;22.80;99.90;;;;;;5111089;28;20171;-76
2022/04/21 08:01:30;;;;;;;7.30;4.82;;;22.80;99.90;;;;;;5112751;28;20561;-76
2022/04/21 08:04:01;;;;;;;5.63;4.65;;;23.10;99.90;;;;;;5111620;28;20294;-76
2022/04/21 08:06:28;;;;;;;5.85;4.55;;;23.00;99.90;;;;;;5071830;28;20203;-77
2022/04/21 08:08:55;;;;;;;4.97;4.57;;;22.20;99.90;;;;;;5110653;28;20205;-77
2022/04/21 08:11:21;;;;;;;5.57;4.45;;;21.80;99.90;;;;;;5111721;28;20186;-77
2022/04/21 08:13:47;;;;;;;5.47;4.55;;;22.10;99.90;;;;;;5111410;28;20171;-76
2022/04/21 08:16:13;;;;;;;6.03;4.57;;;22.10;99.90;;;;;;5111344;28;20171;-77
2022/04/21 08:18:38;;;;;;;5.05;4.35;;;22.70;99.90;;;;;;5092883;28;20202;-77
2022/04/21 08:21:05;;;;;;;6.43;4.63;;;23.10;99.90;;;;;;5111154;28;20237;-76
2022/04/21 08:23:35;;;;;;;7.18;4.22;;;23.80;99.90;;;;;;5111667;28;20182;-76
2022/04/21 08:34:24;;;;;;;5.80;3.72;;;22.30;99.90;;;;;;5112736;28;20181;-76
2022/04/21 08:36:50;;;;;;;5.93;3.50;;;23.70;99.90;;;;;;5111574;28;20508;-76
2022/04/21 08:39:15;;;;;;;3.40;3.20;;;22.60;99.90;;;;;;5111045;28;20179;-75
2022/04/21 08:41:51;;;;;;;4.07;3.65;;;21.20;99.90;;;;;;5111504;28;20210;-76
2022/04/21 08:44:20;;;;;;;4.18;3.72;;;20.80;99.90;;;;;;5111922;28;20238;-77
2022/04/21 08:46:48;;;;;;;5.00;3.90;;;19.60;99.90;;;;;;5111132;28;20633;-76
2022/04/21 08:49:17;;;;;;;7.28;4.05;;;19.80;99.90;;;;;;5111538;28;20614;-75
2022/04/21 08:51:43;;;;;;;4.55;3.47;;;20.50;99.90;;;;;;5112124;28;20240;-77
2022/04/21 08:54:08;;;;;;;5.55;3.95;;;20.50;99.90;;;;;;5111021;28;20630;-78
2022/04/21 08:56:34;;;;;;;4.20;3.78;;;20.30;99.90;;;;;;5111183;28;20298;-78
2022/04/21 08:59:00;;;;;;;5.03;3.10;;;20.70;99.90;;;;;;5111621;28;20167;-77
2022/04/21 09:01:26;;;;;;;3.67;3.38;;;21.00;99.90;;;;;;5111738;28;20222;-78
2022/04/21 09:03:51;;;;;;;4.03;3.63;;;20.70;99.90;;;;;;5111515;28;20174;-77
2022/04/21 09:06:21;;;;;;;5.80;3.65;;;20.60;99.90;;;;;;5111831;28;20277;-77
2022/04/21 09:08:48;;;;;;;4.15;3.30;;;20.00;99.90;;;;;;5110548;28;20192;-77
2022/04/21 09:11:15;;;;;;;3.78;3.47;;;20.60;99.90;;;;;;5110300;28;20175;-77
2022/04/21 09:13:42;;;;;;;4.18;3.88;;;20.20;99.90;;;;;;5092981;28;20175;-78
2022/04/21 09:16:09;;;;;;;5.57;4.43;;;20.60;99.90;;;;;;5093295;28;20178;-76
2022/04/21 09:18:44;;;;;;;8.60;4.10;;;20.20;99.90;;;;;;5111489;28;20626;-77
2022/04/21 09:21:11;;;;;;;6.93;3.95;;;21.30;99.90;;;;;;5111495;28;20205;-77
2022/04/21 09:23:38;;;;;;;4.03;3.40;;;21.30;99.90;;;;;;5093333;28;20178;-77
2022/04/21 09:26:09;;;;;;;6.63;3.58;;;20.60;99.90;;;;;;5111308;28;20179;-77
2022/04/21 09:28:35;;;;;;;3.88;3.38;;;20.70;99.90;;;;;;5111548;28;20171;-77
2022/04/21 09:31:01;;;;;;;4.47;3.50;;;19.90;99.90;;;;;;5110751;28;20590;-77
2022/04/21 09:33:40;;;;;;;5.40;4.00;;;20.70;99.90;;;;;;5112554;28;20168;-78
2022/04/21 09:36:07;;;;;;;4.00;3.70;;;21.10;99.90;;;;;;5111795;28;20203;-78
2022/04/21 09:38:36;;;;;;;4.10;3.80;;;20.30;99.90;;;;;;5114087;28;20538;-75
2022/04/21 09:41:09;;;;;;;6.13;4.20;;;20.20;99.90;;;;;;5114930;28;20233;-76
2022/04/21 09:43:37;;;;;;;4.45;4.05;;;20.60;99.90;;;;;;5097423;28;20163;-78
2022/04/21 09:46:17;;;;;;;4.75;4.35;;;21.50;99.90;;;;;;5116145;28;20171;-77
2022/04/21 09:48:44;;;;;;;6.40;4.80;;;20.30;99.90;;;;;;5115085;28;20217;-78
2022/04/21 09:51:11;;;;;;;5.10;4.30;;;20.40;99.90;;;;;;5115425;28;20200;-77
2022/04/21 09:53:57;;;;;;;3.47;3.17;;;20.50;99.90;;;;;;5115158;28;20179;-77
2022/04/21 09:56:31;;;;;;;4.65;3.90;;;19.90;99.90;;;;;;5115408;28;20340;-79
2022/04/21 09:59:02;;;;;;;4.55;3.95;;;19.90;99.90;;;;;;5114469;28;20216;-78
2022/04/21 10:01:28;;;;;;;4.40;4.00;;;20.90;99.90;;;;;;5113107;28;20203;-79
2022/04/21 10:03:55;;;;;;;4.28;3.97;;;20.60;99.90;;;;;;5093107;28;20282;-78
2022/04/21 10:06:21;;;;;;;4.50;4.18;;;19.80;99.90;;;;;;5117619;28;20171;-78
2022/04/21 10:08:49;;;;;;;5.65;4.00;;;20.60;99.90;;;;;;5085780;28;20230;-78
2022/04/21 10:11:16;;;;;;;5.18;4.57;;;20.60;99.90;;;;;;5113510;28;20179;-78
2022/04/21 10:13:44;;;;;;;5.32;4.93;;;20.60;99.90;;;;;;5114252;28;20198;-78
2022/04/21 10:16:11;;;;;;;5.05;4.65;;;19.80;99.90;;;;;;5111502;28;20183;-78
2022/04/21 10:18:38;;;;;;;5.00;4.00;;;19.60;99.90;;;;;;5097375;28;20175;-77
2022/04/21 10:21:05;;;;;;;5.82;5.07;;;19.00;99.90;;;;;;5112802;28;20203;-78
2022/04/21 10:23:32;;;;;;;9.60;4.47;;;18.50;99.90;;;;;;5112753;28;20173;-78
2022/04/21 10:26:03;;;;;;;4.30;3.90;;;19.30;99.90;;;;;;5113600;28;20182;-77
2022/04/21 10:28:46;;;;;;;5.65;4.82;;;19.80;99.90;;;;;;5113428;28;20186;-77
2022/04/21 10:31:29;;;;;;;4.20;3.90;;;20.30;99.90;;;;;;5095436;28;20179;-78
2022/04/21 10:34:28;;;;;;;5.88;4.60;;;21.30;99.90;;;;;;5113808;28;20261;-79
2022/04/21 10:37:16;;;;;;;5.65;5.07;;;20.20;99.90;;;;;;5101836;28;20214;-78
2022/04/21 10:40:08;;;;;;;5.20;4.57;;;20.00;99.90;;;;;;5103671;28;20214;-78
2022/04/21 10:42:52;;;;;;;8.32;4.40;;;19.60;99.90;;;;;;5113627;28;20183;-77
2022/04/21 10:45:31;;;;;;;4.75;4.25;;;20.60;99.90;;;;;;5113807;28;20167;-77
2022/04/21 10:48:09;;;;;;;5.45;4.13;;;20.90;99.90;;;;;;5114156;28;20177;-78
2022/04/21 10:50:36;;;;;;;4.68;4.25;;;20.70;99.90;;;;;;5112336;28;20186;-78
2022/04/21 10:58:35;;;;;;;4.40;3.92;;;20.70;99.90;;;;;;5113636;28;20648;-78
2022/04/21 11:01:16;;;;;;;3.83;3.53;;;21.50;99.90;;;;;;5113343;28;20202;-78
2022/04/21 11:03:43;;;;;;;5.35;3.97;;;21.40;99.90;;;;;;5112758;28;20164;-78
2022/04/21 11:06:13;;;;;;;5.68;4.10;;;20.10;99.90;;;;;;5112932;28;20199;-78
2022/04/21 11:08:38;;;;;;;5.38;4.38;;;19.60;99.90;;;;;;5112842;28;20222;-76
2022/04/21 11:11:05;;;;;;;5.72;4.55;;;19.50;99.90;;;;;;5112421;28;20638;-76
2022/04/21 11:13:41;;;;;;;5.00;4.60;;;20.20;99.90;;;;;;5112325;28;20253;-78
2022/04/21 11:16:07;;;;;;;4.70;4.40;;;20.10;99.90;;;;;;5113336;28;20167;-77
2022/04/21 11:18:33;;;;;;;7.32;4.40;;;19.70;99.90;;;;;;5112738;28;20228;-78
2022/04/21 11:21:27;;;;;;;8.70;4.53;;;19.80;99.90;;;;;;5111119;28;20206;-78
2022/04/21 11:23:52;;;;;;;5.32;3.53;;;20.40;99.90;;;;;;5087152;28;20257;-77
2022/04/21 11:26:24;;;;;;;3.78;3.47;;;20.10;99.90;;;;;;5112867;28;20167;-78
2022/04/21 11:28:50;;;;;;;5.70;4.30;;;19.80;99.90;;;;;;5107494;28;20224;-76
2022/04/21 11:31:20;;;;;;;4.65;4.13;;;19.30;99.90;;;;;;5091085;28;20170;-75
2022/04/21 11:33:45;;;;;;;4.80;4.22;;;19.40;99.90;;;;;;5103783;28;20175;-77
2022/04/21 11:36:13;;;;;;;6.47;4.55;;;19.50;99.90;;;;;;5110931;28;20170;-76
2022/04/21 11:38:45;;;;;;;4.95;4.53;;;19.20;99.90;;;;;;5112179;28;20713;-75
2022/04/21 11:41:13;;;;;;;4.13;3.75;;;19.20;99.90;;;;;;5111929;28;20202;-76
2022/04/21 11:43:46;;;;;;;5.53;3.60;;;19.50;99.90;;;;;;5093611;28;20598;-75
2022/04/21 11:46:12;;;;;;;5.40;3.80;;;19.80;99.90;;;;;;5112237;28;20307;-74
2022/04/21 11:48:40;;;;;;;4.93;4.15;;;20.10;99.90;;;;;;5093072;28;20210;-75
2022/04/21 11:51:09;;;;;;;5.60;4.30;;;20.40;99.90;;;;;;5111160;28;20205;-74
2022/04/21 11:53:36;;;;;;;3.80;3.50;;;19.30;99.90;;;;;;5112079;28;20179;-74
2022/04/21 11:56:04;;;;;;;4.50;3.97;;;19.40;99.90;;;;;;5111959;28;20179;-75
2022/04/21 11:58:30;;;;;;;5.38;3.88;;;19.00;99.90;;;;;;5111523;28;20210;-75
2022/04/21 12:06:56;;;;;;;5.88;4.18;;;19.10;99.90;;;;;;5024890;28;20584;-73
2022/04/21 12:09:26;;;;;;;8.10;3.88;;;19.00;99.90;;;;;;5027170;28;20170;-73
2022/04/21 12:12:00;;;;;;;5.38;4.63;;;19.00;99.90;;;;;;5029063;28;20602;-75
2022/04/21 12:14:27;;;;;;;6.07;3.60;;;19.20;99.90;;;;;;5029579;28;20173;-74
2022/04/21 12:17:03;;;;;;;6.68;3.58;;;18.80;99.90;;;;;;5027409;28;20214;-75
2022/04/21 12:19:34;;;;;;;3.70;3.40;;;18.90;99.90;;;;;;5027822;28;20181;-73
2022/04/21 12:22:05;;;;;;;3.92;3.63;;;18.70;99.90;;;;;;5028664;28;20228;-76
2022/04/21 12:24:38;;;;;;;4.80;3.27;;;18.70;99.90;;;;;;5029263;28;20248;-74
2022/04/21 12:27:10;;;;;;;4.60;3.33;;;19.00;99.90;;;;;;5027941;28;20273;-74
2022/04/21 12:29:46;;;;;;;4.07;3.70;;;18.60;99.90;;;;;;5028805;28;20204;-75
2022/04/21 12:32:11;;;;;;;5.07;3.23;;;18.50;99.90;;;;;;5028563;28;20173;-74
2022/04/21 12:34:40;;;;;;;4.20;3.37;;;18.50;99.90;;;;;;5028535;28;20185;-73
2022/04/21 12:37:06;;;;;;;4.13;3.73;;;18.70;99.90;;;;;;5028700;28;20304;-74
2022/04/21 12:39:33;;;;;;;4.23;3.17;;;18.80;99.90;;;;;;5027969;28;20222;-74
2022/04/21 12:42:01;;;;;;;3.67;3.35;;;18.90;99.90;;;;;;5028668;28;20217;-74
2022/04/21 12:44:27;;;;;;;4.20;2.90;;;18.70;99.90;;;;;;5110635;28;20182;-73
2022/04/21 12:46:58;;;;;;;3.50;3.17;;;18.60;99.90;;;;;;5110754;28;20258;-73
2022/04/21 12:49:45;;;;;;;6.37;3.67;;;18.70;99.90;;;;;;5110230;28;20550;-71
2022/04/21 12:52:11;;;;;;;8.33;3.20;;;18.80;99.90;;;;;;5089321;28;20627;-71
2022/04/21 12:54:37;;;;;;;3.87;3.30;;;19.00;99.90;;;;;;5111831;28;20211;-72
2022/04/21 12:57:06;;;;;;;3.87;3.50;;;19.00;99.90;;;;;;5088822;28;20246;-74
2022/04/21 12:59:32;;;;;;;4.67;3.10;;;19.00;99.90;;;;;;5090974;28;20176;-71
2022/04/21 13:01:57;;;;;;;2.87;2.63;;;18.70;99.90;;;;;;5091426;28;20924;-72
2022/04/21 13:04:23;;;;;;;6.67;2.67;;;18.70;99.90;;;;;;5090570;28;20182;-73
2022/04/21 13:06:48;;;;;;;2.77;2.57;;;19.00;99.70;;;;;;5089877;28;20175;-73
2022/04/21 13:09:14;;;;;;;2.73;2.53;;;18.90;97.60;;;;;;5091165;28;20639;-72
2022/04/21 13:11:39;;;;;;;5.60;2.60;;;19.00;95.70;;;;;;5091561;28;20199;-74
2022/04/21 13:14:05;;;;;;;2.60;2.47;;;19.20;96.40;;;;;;5093110;28;20574;-74
2022/04/21 13:16:31;;;;;;;3.43;2.63;;;19.00;97.70;;;;;;5094449;28;20200;-74
2022/04/21 13:18:57;;;;;;;5.70;2.63;;;19.10;99.20;;;;;;5095172;28;20494;-74
2022/04/21 13:24:07;;;;;;;3.00;2.53;;;19.30;99.90;;;;;;5095321;28;20232;-74
2022/04/21 13:26:33;;;;;;;4.72;2.42;;;19.50;96.30;;;;;;5093818;28;20180;-73
2022/04/21 13:28:59;;;;;;;5.53;2.87;;;19.00;93.60;;;;;;5094777;28;20175;-75
2022/04/21 13:34:09;;;;;;;3.50;3.20;;;19.00;95.20;;;;;;5095141;28;20170;-74
2022/04/21 13:36:38;;;;;;;5.70;2.30;;;19.20;94.60;;;;;;5093997;28;20196;-73
2022/04/21 13:39:05;;;;;;;4.03;3.00;;;19.20;92.10;;;;;;5095201;28;20200;-73
2022/04/21 13:41:31;;;;;;;2.92;2.60;;;18.90;90.70;;;;;;5094227;28;20199;-73
2022/04/21 13:43:56;;;;;;;2.90;2.70;;;18.80;87.20;;;;;;5093883;28;20317;-74